Port Alsworth, Alaska
Current Conditions -  °F | °C
As of 6:53 PM on Sunday 25 Jan 2015 (Local Time) from PAIL Reporting Station
Few Clouds Few Clouds  
Wind Chill: -27°   Ceiling: Unl
Heat Index: -7°   Visibility: 10mi
Dew Point: -13°   Wind: 13mph
Humidity: 75%   Direction: 360°N
Pressure: 29.95"   Gusts: NA
Location:  60.2°N, 154.32°W
Report Text: PAIL 260353Z 36011KT 10SM FEW085 M22/M25 A2995 RMK AO2 SLP151 T12171250
Loading
Personal Weather Stations






























Interactive Weather Map New forecast layout! Learn more

10-Day Weather Forecast

Advertisements
Track Severe Weather on mobile